sensor_id;sensor_type;location;lat;lon;timestamp;temperature;humidity
10129;DHT22;5104;50.720;7.044;2022-10-17T00:02:04;14.40;99.90
10129;DHT22;5104;50.720;7.044;2022-10-17T00:04:31;14.40;99.90
10129;DHT22;5104;50.720;7.044;2022-10-17T00:06:58;14.40;99.90
10129;DHT22;5104;50.720;7.044;2022-10-17T00:09:25;14.50;99.90
10129;DHT22;5104;50.720;7.044;2022-10-17T00:11:52;14.50;99.90
10129;DHT22;5104;50.720;7.044;2022-10-17T00:14:19;14.50;99.90
10129;DHT22;5104;50.720;7.044;2022-10-17T00:16:45;14.50;99.90
10129;DHT22;5104;50.720;7.044;2022-10-17T00:19:13;14.60;99.90
10129;DHT22;5104;50.720;7.044;2022-10-17T00:21:40;14.70;99.90
10129;DHT22;5104;50.720;7.044;2022-10-17T00:24:07;14.70;99.90
10129;DHT22;5104;50.720;7.044;2022-10-17T00:26:34;14.80;99.90
10129;DHT22;5104;50.720;7.044;2022-10-17T00:29:01;14.80;99.90
10129;DHT22;5104;50.720;7.044;2022-10-17T00:31:27;14.80;99.90
10129;DHT22;5104;50.720;7.044;2022-10-17T00:33:54;14.80;99.90
10129;DHT22;5104;50.720;7.044;2022-10-17T00:36:24;14.80;99.90
10129;DHT22;5104;50.720;7.044;2022-10-17T00:38:53;14.80;99.90
10129;DHT22;5104;50.720;7.044;2022-10-17T00:41:22;14.80;99.90
10129;DHT22;5104;50.720;7.044;2022-10-17T00:44:00;14.80;99.90
10129;DHT22;5104;50.720;7.044;2022-10-17T00:46:28;14.80;99.90
10129;DHT22;5104;50.720;7.044;2022-10-17T00:48:58;14.80;99.90
10129;DHT22;5104;50.720;7.044;2022-10-17T00:51:32;14.70;99.90
10129;DHT22;5104;50.720;7.044;2022-10-17T00:54:00;14.70;99.90
10129;DHT22;5104;50.720;7.044;2022-10-17T00:56:28;14.60;99.90
10129;DHT22;5104;50.720;7.044;2022-10-17T00:58:56;14.60;99.90
10129;DHT22;5104;50.720;7.044;2022-10-17T01:01:23;14.50;99.90
10129;DHT22;5104;50.720;7.044;2022-10-17T01:03:49;14.50;99.90
10129;DHT22;5104;50.720;7.044;2022-10-17T01:06:16;14.50;99.90
10129;DHT22;5104;50.720;7.044;2022-10-17T01:08:45;14.50;99.90
10129;DHT22;5104;50.720;7.044;2022-10-17T01:11:20;14.60;99.90
10129;DHT22;5104;50.720;7.044;2022-10-17T01:13:51;14.60;99.90
10129;DHT22;5104;50.720;7.044;2022-10-17T01:16:26;14.70;99.90
10129;DHT22;5104;50.720;7.044;2022-10-17T01:19:02;14.70;99.90
10129;DHT22;5104;50.720;7.044;2022-10-17T01:21:41;14.70;99.90
10129;DHT22;5104;50.720;7.044;2022-10-17T01:24:35;14.80;99.90
10129;DHT22;5104;50.720;7.044;2022-10-17T01:27:24;14.80;99.90
10129;DHT22;5104;50.720;7.044;2022-10-17T01:30:02;14.80;99.90
10129;DHT22;5104;50.720;7.044;2022-10-17T01:32:39;14.80;99.90
10129;DHT22;5104;50.720;7.044;2022-10-17T01:35:15;14.80;99.90
10129;DHT22;5104;50.720;7.044;2022-10-17T01:37:47;14.80;99.90
10129;DHT22;5104;50.720;7.044;2022-10-17T01:40:20;14.80;99.90
10129;DHT22;5104;50.720;7.044;2022-10-17T01:42:53;14.80;99.90
10129;DHT22;5104;50.720;7.044;2022-10-17T01:45:26;14.80;99.90
10129;DHT22;5104;50.720;7.044;2022-10-17T01:47:59;14.80;99.90
10129;DHT22;5104;50.720;7.044;2022-10-17T01:50:33;14.80;99.90
10129;DHT22;5104;50.720;7.044;2022-10-17T01:53:05;14.80;99.90
10129;DHT22;5104;50.720;7.044;2022-10-17T01:55:35;14.90;99.90
10129;DHT22;5104;50.720;7.044;2022-10-17T01:58:05;14.90;99.90
10129;DHT22;5104;50.720;7.044;2022-10-17T02:00:34;15.00;99.90
10129;DHT22;5104;50.720;7.044;2022-10-17T02:03:06;15.10;99.90
10129;DHT22;5104;50.720;7.044;2022-10-17T02:05:36;15.20;99.90
10129;DHT22;5104;50.720;7.044;2022-10-17T02:08:05;15.30;99.90
10129;DHT22;5104;50.720;7.044;2022-10-17T02:10:50;15.40;99.90
10129;DHT22;5104;50.720;7.044;2022-10-17T02:13:29;15.50;99.90
10129;DHT22;5104;50.720;7.044;2022-10-17T02:16:07;15.50;99.90
10129;DHT22;5104;50.720;7.044;2022-10-17T02:18:51;15.60;99.90
10129;DHT22;5104;50.720;7.044;2022-10-17T02:21:30;15.70;99.90
10129;DHT22;5104;50.720;7.044;2022-10-17T02:24:05;15.70;99.90
10129;DHT22;5104;50.720;7.044;2022-10-17T02:26:38;15.80;99.90
10129;DHT22;5104;50.720;7.044;2022-10-17T02:29:11;15.90;99.90
10129;DHT22;5104;50.720;7.044;2022-10-17T02:31:44;15.90;99.90
10129;DHT22;5104;50.720;7.044;2022-10-17T02:34:15;15.90;99.90
10129;DHT22;5104;50.720;7.044;2022-10-17T02:36:47;15.90;99.90
10129;DHT22;5104;50.720;7.044;2022-10-17T02:39:15;15.90;99.90
10129;DHT22;5104;50.720;7.044;2022-10-17T02:41:45;15.90;99.90
10129;DHT22;5104;50.720;7.044;2022-10-17T02:44:13;15.90;99.90
10129;DHT22;5104;50.720;7.044;2022-10-17T02:46:40;15.90;99.90
10129;DHT22;5104;50.720;7.044;2022-10-17T02:49:14;16.00;99.90
10129;DHT22;5104;50.720;7.044;2022-10-17T02:51:46;16.00;99.90
10129;DHT22;5104;50.720;7.044;2022-10-17T02:54:19;16.00;99.90
10129;DHT22;5104;50.720;7.044;2022-10-17T02:56:50;16.00;99.90
10129;DHT22;5104;50.720;7.044;2022-10-17T02:59:20;15.90;99.90
10129;DHT22;5104;50.720;7.044;2022-10-17T03:01:48;15.90;99.90
10129;DHT22;5104;50.720;7.044;2022-10-17T03:04:17;15.90;99.90
10129;DHT22;5104;50.720;7.044;2022-10-17T03:06:45;15.90;99.90
10129;DHT22;5104;50.720;7.044;2022-10-17T03:09:13;15.90;99.90
10129;DHT22;5104;50.720;7.044;2022-10-17T03:11:40;15.90;99.90
10129;DHT22;5104;50.720;7.044;2022-10-17T03:14:07;16.00;99.90
10129;DHT22;5104;50.720;7.044;2022-10-17T03:16:34;16.00;99.90
10129;DHT22;5104;50.720;7.044;2022-10-17T03:19:01;16.00;99.90
10129;DHT22;5104;50.720;7.044;2022-10-17T03:21:29;15.90;99.90
10129;DHT22;5104;50.720;7.044;2022-10-17T03:23:56;15.90;99.90
10129;DHT22;5104;50.720;7.044;2022-10-17T03:26:23;15.80;99.90
10129;DHT22;5104;50.720;7.044;2022-10-17T03:28:50;15.80;99.90
10129;DHT22;5104;50.720;7.044;2022-10-17T03:31:16;15.80;99.90
10129;DHT22;5104;50.720;7.044;2022-10-17T03:33:43;15.80;99.90
10129;DHT22;5104;50.720;7.044;2022-10-17T03:36:13;15.80;99.90
10129;DHT22;5104;50.720;7.044;2022-10-17T03:38:42;15.80;99.90
10129;DHT22;5104;50.720;7.044;2022-10-17T03:41:09;15.80;99.90
10129;DHT22;5104;50.720;7.044;2022-10-17T03:43:36;15.80;99.90
10129;DHT22;5104;50.720;7.044;2022-10-17T03:46:03;15.80;99.90
10129;DHT22;5104;50.720;7.044;2022-10-17T03:48:30;15.70;99.90
10129;DHT22;5104;50.720;7.044;2022-10-17T03:50:58;15.70;99.90
10129;DHT22;5104;50.720;7.044;2022-10-17T03:53:26;15.70;99.90
10129;DHT22;5104;50.720;7.044;2022-10-17T03:55:55;15.80;99.90
10129;DHT22;5104;50.720;7.044;2022-10-17T03:58:22;15.80;99.90
10129;DHT22;5104;50.720;7.044;2022-10-17T04:00:49;15.80;99.90
10129;DHT22;5104;50.720;7.044;2022-10-17T04:03:16;15.70;99.90
10129;DHT22;5104;50.720;7.044;2022-10-17T04:05:43;15.60;99.90
10129;DHT22;5104;50.720;7.044;2022-10-17T04:08:09;15.60;99.90
10129;DHT22;5104;50.720;7.044;2022-10-17T04:10:36;15.70;99.90
10129;DHT22;5104;50.720;7.044;2022-10-17T04:13:04;15.80;99.90
10129;DHT22;5104;50.720;7.044;2022-10-17T04:15:31;15.80;99.90
10129;DHT22;5104;50.720;7.044;2022-10-17T04:17:58;15.90;99.90
10129;DHT22;5104;50.720;7.044;2022-10-17T04:20:25;16.00;99.90
10129;DHT22;5104;50.720;7.044;2022-10-17T04:22:51;16.00;99.90
10129;DHT22;5104;50.720;7.044;2022-10-17T04:25:18;15.90;99.90
10129;DHT22;5104;50.720;7.044;2022-10-17T04:27:45;16.00;99.90
10129;DHT22;5104;50.720;7.044;2022-10-17T04:30:15;15.90;99.90
10129;DHT22;5104;50.720;7.044;2022-10-17T04:32:42;15.80;99.90
10129;DHT22;5104;50.720;7.044;2022-10-17T04:35:09;15.80;99.90
10129;DHT22;5104;50.720;7.044;2022-10-17T04:37:35;15.80;99.90
10129;DHT22;5104;50.720;7.044;2022-10-17T04:40:03;15.80;99.90
10129;DHT22;5104;50.720;7.044;2022-10-17T04:42:29;15.80;99.90
10129;DHT22;5104;50.720;7.044;2022-10-17T04:44:56;15.80;99.90
10129;DHT22;5104;50.720;7.044;2022-10-17T04:47:24;15.80;99.90
10129;DHT22;5104;50.720;7.044;2022-10-17T04:49:51;15.90;99.90
10129;DHT22;5104;50.720;7.044;2022-10-17T04:52:18;15.80;99.90
10129;DHT22;5104;50.720;7.044;2022-10-17T04:54:45;15.80;99.90
10129;DHT22;5104;50.720;7.044;2022-10-17T04:57:11;15.80;99.90
10129;DHT22;5104;50.720;7.044;2022-10-17T04:59:38;15.70;99.90
10129;DHT22;5104;50.720;7.044;2022-10-17T05:02:05;15.60;99.90
10129;DHT22;5104;50.720;7.044;2022-10-17T05:04:33;15.60;99.90
10129;DHT22;5104;50.720;7.044;2022-10-17T05:07:00;15.50;99.90
10129;DHT22;5104;50.720;7.044;2022-10-17T05:09:27;15.50;99.90
10129;DHT22;5104;50.720;7.044;2022-10-17T05:11:54;15.50;99.90
10129;DHT22;5104;50.720;7.044;2022-10-17T05:14:21;15.50;99.90
10129;DHT22;5104;50.720;7.044;2022-10-17T05:16:48;15.60;99.90
10129;DHT22;5104;50.720;7.044;2022-10-17T05:19:15;15.60;99.90
10129;DHT22;5104;50.720;7.044;2022-10-17T05:21:44;15.60;99.90
10129;DHT22;5104;50.720;7.044;2022-10-17T05:24:14;15.60;99.90
10129;DHT22;5104;50.720;7.044;2022-10-17T05:26:41;15.50;99.90
10129;DHT22;5104;50.720;7.044;2022-10-17T05:29:08;15.50;99.90
10129;DHT22;5104;50.720;7.044;2022-10-17T05:31:35;15.50;99.90
10129;DHT22;5104;50.720;7.044;2022-10-17T05:34:03;15.50;99.90
10129;DHT22;5104;50.720;7.044;2022-10-17T05:36:29;15.40;99.90
10129;DHT22;5104;50.720;7.044;2022-10-17T05:38:58;15.30;99.90
10129;DHT22;5104;50.720;7.044;2022-10-17T05:41:24;15.30;99.90
10129;DHT22;5104;50.720;7.044;2022-10-17T05:43:51;15.20;99.90
10129;DHT22;5104;50.720;7.044;2022-10-17T05:46:18;15.10;99.90
10129;DHT22;5104;50.720;7.044;2022-10-17T05:48:45;15.10;99.90
10129;DHT22;5104;50.720;7.044;2022-10-17T05:51:12;15.10;99.90
10129;DHT22;5104;50.720;7.044;2022-10-17T05:53:40;15.10;99.90
10129;DHT22;5104;50.720;7.044;2022-10-17T05:56:09;15.10;99.90
10129;DHT22;5104;50.720;7.044;2022-10-17T05:58:39;15.10;99.90
10129;DHT22;5104;50.720;7.044;2022-10-17T06:01:07;15.00;99.90
10129;DHT22;5104;50.720;7.044;2022-10-17T06:03:34;15.00;99.90
10129;DHT22;5104;50.720;7.044;2022-10-17T06:06:05;14.90;99.90
10129;DHT22;5104;50.720;7.044;2022-10-17T06:08:31;14.90;99.90
10129;DHT22;5104;50.720;7.044;2022-10-17T06:10:58;14.90;99.90
10129;DHT22;5104;50.720;7.044;2022-10-17T06:13:27;14.80;99.90
10129;DHT22;5104;50.720;7.044;2022-10-17T06:15:54;14.80;99.90
10129;DHT22;5104;50.720;7.044;2022-10-17T06:18:21;14.80;99.90
10129;DHT22;5104;50.720;7.044;2022-10-17T06:20:48;14.90;99.90
10129;DHT22;5104;50.720;7.044;2022-10-17T06:23:15;15.00;99.90
10129;DHT22;5104;50.720;7.044;2022-10-17T06:25:42;15.00;99.90
10129;DHT22;5104;50.720;7.044;2022-10-17T06:28:09;15.10;99.90
10129;DHT22;5104;50.720;7.044;2022-10-17T06:30:39;15.20;99.90
10129;DHT22;5104;50.720;7.044;2022-10-17T06:33:06;15.20;99.90
10129;DHT22;5104;50.720;7.044;2022-10-17T06:35:32;15.20;99.90
10129;DHT22;5104;50.720;7.044;2022-10-17T06:37:59;15.30;99.90
10129;DHT22;5104;50.720;7.044;2022-10-17T06:40:26;15.20;99.90
10129;DHT22;5104;50.720;7.044;2022-10-17T06:42:55;15.30;99.90
10129;DHT22;5104;50.720;7.044;2022-10-17T06:45:22;15.40;99.90
10129;DHT22;5104;50.720;7.044;2022-10-17T06:47:50;15.40;99.90
10129;DHT22;5104;50.720;7.044;2022-10-17T06:50:17;15.50;99.90
10129;DHT22;5104;50.720;7.044;2022-10-17T06:52:44;15.50;99.90
10129;DHT22;5104;50.720;7.044;2022-10-17T06:55:10;15.60;99.90
10129;DHT22;5104;50.720;7.044;2022-10-17T06:57:38;15.70;99.90
10129;DHT22;5104;50.720;7.044;2022-10-17T07:00:05;15.80;99.90
10129;DHT22;5104;50.720;7.044;2022-10-17T07:02:32;15.90;99.90
10129;DHT22;5104;50.720;7.044;2022-10-17T07:05:00;16.10;99.90
10129;DHT22;5104;50.720;7.044;2022-10-17T07:07:29;16.30;99.90
10129;DHT22;5104;50.720;7.044;2022-10-17T07:09:56;16.40;99.90
10129;DHT22;5104;50.720;7.044;2022-10-17T07:12:23;16.60;99.90
10129;DHT22;5104;50.720;7.044;2022-10-17T07:14:50;16.80;99.90
10129;DHT22;5104;50.720;7.044;2022-10-17T07:17:17;16.90;99.90
10129;DHT22;5104;50.720;7.044;2022-10-17T07:19:44;17.00;99.90
10129;DHT22;5104;50.720;7.044;2022-10-17T07:22:12;17.00;99.90
10129;DHT22;5104;50.720;7.044;2022-10-17T07:24:39;17.10;99.90
10129;DHT22;5104;50.720;7.044;2022-10-17T07:27:06;17.10;99.90
10129;DHT22;5104;50.720;7.044;2022-10-17T07:29:32;17.10;99.90
10129;DHT22;5104;50.720;7.044;2022-10-17T07:31:59;17.00;99.90
10129;DHT22;5104;50.720;7.044;2022-10-17T07:34:28;17.00;99.90
10129;DHT22;5104;50.720;7.044;2022-10-17T07:36:55;17.00;99.90
10129;DHT22;5104;50.720;7.044;2022-10-17T07:39:24;16.90;99.90
10129;DHT22;5104;50.720;7.044;2022-10-17T07:41:51;16.90;99.90
10129;DHT22;5104;50.720;7.044;2022-10-17T07:44:18;16.90;99.90
10129;DHT22;5104;50.720;7.044;2022-10-17T07:46:45;17.00;99.90
10129;DHT22;5104;50.720;7.044;2022-10-17T07:49:12;17.30;99.90
10129;DHT22;5104;50.720;7.044;2022-10-17T07:51:39;17.50;99.90
10129;DHT22;5104;50.720;7.044;2022-10-17T07:54:05;17.50;99.90
10129;DHT22;5104;50.720;7.044;2022-10-17T07:56:33;17.60;99.90
10129;DHT22;5104;50.720;7.044;2022-10-17T07:59:00;17.60;99.90
10129;DHT22;5104;50.720;7.044;2022-10-17T08:01:27;17.60;99.90
10129;DHT22;5104;50.720;7.044;2022-10-17T08:03:54;17.60;99.90
10129;DHT22;5104;50.720;7.044;2022-10-17T08:06:21;17.70;99.90
10129;DHT22;5104;50.720;7.044;2022-10-17T08:08:48;17.70;99.90
10129;DHT22;5104;50.720;7.044;2022-10-17T08:11:15;17.80;99.90
10129;DHT22;5104;50.720;7.044;2022-10-17T08:13:43;17.90;99.90
10129;DHT22;5104;50.720;7.044;2022-10-17T08:16:11;18.00;99.90
10129;DHT22;5104;50.720;7.044;2022-10-17T08:18:39;18.00;99.90
10129;DHT22;5104;50.720;7.044;2022-10-17T08:21:07;18.10;99.90
10129;DHT22;5104;50.720;7.044;2022-10-17T08:23:35;18.20;99.90
10129;DHT22;5104;50.720;7.044;2022-10-17T08:26:03;18.30;99.90
10129;DHT22;5104;50.720;7.044;2022-10-17T08:28:33;18.20;99.90
10129;DHT22;5104;50.720;7.044;2022-10-17T08:31:03;18.30;99.90
10129;DHT22;5104;50.720;7.044;2022-10-17T08:33:30;18.40;99.90
10129;DHT22;5104;50.720;7.044;2022-10-17T08:35:58;18.40;99.90
10129;DHT22;5104;50.720;7.044;2022-10-17T08:38:25;18.40;99.90
10129;DHT22;5104;50.720;7.044;2022-10-17T08:40:52;18.60;99.90
10129;DHT22;5104;50.720;7.044;2022-10-17T08:43:31;18.70;99.90
10129;DHT22;5104;50.720;7.044;2022-10-17T08:46:04;18.80;99.90
10129;DHT22;5104;50.720;7.044;2022-10-17T08:48:35;18.90;99.90
10129;DHT22;5104;50.720;7.044;2022-10-17T08:51:09;19.10;99.90
10129;DHT22;5104;50.720;7.044;2022-10-17T08:53:41;19.20;99.90
10129;DHT22;5104;50.720;7.044;2022-10-17T08:56:15;19.20;99.90
10129;DHT22;5104;50.720;7.044;2022-10-17T08:58:43;19.30;99.90
10129;DHT22;5104;50.720;7.044;2022-10-17T09:01:21;19.30;99.90
10129;DHT22;5104;50.720;7.044;2022-10-17T09:04:06;19.40;99.90
10129;DHT22;5104;50.720;7.044;2022-10-17T09:06:43;19.30;99.90
10129;DHT22;5104;50.720;7.044;2022-10-17T09:09:23;19.30;99.90
10129;DHT22;5104;50.720;7.044;2022-10-17T09:11:59;19.50;99.90
10129;DHT22;5104;50.720;7.044;2022-10-17T09:17:36;19.80;99.90
10129;DHT22;5104;50.720;7.044;2022-10-17T09:20:11;20.20;99.90
10129;DHT22;5104;50.720;7.044;2022-10-17T09:22:43;20.60;99.90
10129;DHT22;5104;50.720;7.044;2022-10-17T09:25:15;21.10;99.90
10129;DHT22;5104;50.720;7.044;2022-10-17T09:27:45;21.30;99.90
10129;DHT22;5104;50.720;7.044;2022-10-17T09:30:24;21.60;99.90
10129;DHT22;5104;50.720;7.044;2022-10-17T09:32:54;21.70;1.00
10129;DHT22;5104;50.720;7.044;2022-10-17T09:35:22;21.60;1.00
10129;DHT22;5104;50.720;7.044;2022-10-17T09:37:49;21.90;1.00
10129;DHT22;5104;50.720;7.044;2022-10-17T09:40:20;21.80;1.00
10129;DHT22;5104;50.720;7.044;2022-10-17T09:42:48;21.70;1.00
10129;DHT22;5104;50.720;7.044;2022-10-17T09:45:18;21.70;1.00
10129;DHT22;5104;50.720;7.044;2022-10-17T09:47:58;22.00;1.00
10129;DHT22;5104;50.720;7.044;2022-10-17T09:50:28;21.50;1.00
10129;DHT22;5104;50.720;7.044;2022-10-17T09:52:59;21.30;1.00
10129;DHT22;5104;50.720;7.044;2022-10-17T09:55:36;21.40;1.00
10129;DHT22;5104;50.720;7.044;2022-10-17T09:58:05;21.60;1.00
10129;DHT22;5104;50.720;7.044;2022-10-17T10:00:34;21.80;1.00
10129;DHT22;5104;50.720;7.044;2022-10-17T10:03:24;22.10;1.00
10129;DHT22;5104;50.720;7.044;2022-10-17T10:06:00;22.40;1.00
10129;DHT22;5104;50.720;7.044;2022-10-17T10:08:29;22.40;99.90
10129;DHT22;5104;50.720;7.044;2022-10-17T10:10:58;22.30;1.00
10129;DHT22;5104;50.720;7.044;2022-10-17T10:13:28;22.60;99.90
10129;DHT22;5104;50.720;7.044;2022-10-17T10:16:12;22.50;1.00
10129;DHT22;5104;50.720;7.044;2022-10-17T10:18:41;22.60;1.00
10129;DHT22;5104;50.720;7.044;2022-10-17T10:21:11;23.00;1.00
10129;DHT22;5104;50.720;7.044;2022-10-17T10:23:39;22.90;99.90
10129;DHT22;5104;50.720;7.044;2022-10-17T10:26:24;23.00;1.00
10129;DHT22;5104;50.720;7.044;2022-10-17T10:28:55;23.10;1.00
10129;DHT22;5104;50.720;7.044;2022-10-17T10:31:30;23.00;99.90
10129;DHT22;5104;50.720;7.044;2022-10-17T10:34:02;23.10;1.00
10129;DHT22;5104;50.720;7.044;2022-10-17T10:36:57;23.30;99.90
10129;DHT22;5104;50.720;7.044;2022-10-17T10:39:43;23.60;99.90
10129;DHT22;5104;50.720;7.044;2022-10-17T10:42:32;23.50;6.80
10129;DHT22;5104;50.720;7.044;2022-10-17T10:45:02;23.70;1.00
10129;DHT22;5104;50.720;7.044;2022-10-17T10:47:31;23.70;1.00
10129;DHT22;5104;50.720;7.044;2022-10-17T10:50:28;23.80;1.00
10129;DHT22;5104;50.720;7.044;2022-10-17T10:53:12;24.00;1.00
10129;DHT22;5104;50.720;7.044;2022-10-17T10:55:44;24.30;4.00
10129;DHT22;5104;50.720;7.044;2022-10-17T10:58:25;24.50;35.40
10129;DHT22;5104;50.720;7.044;2022-10-17T11:00:53;24.30;1.00
10129;DHT22;5104;50.720;7.044;2022-10-17T11:03:26;24.00;1.00
10129;DHT22;5104;50.720;7.044;2022-10-17T11:06:01;23.90;1.00
10129;DHT22;5104;50.720;7.044;2022-10-17T11:08:34;24.00;99.90
10129;DHT22;5104;50.720;7.044;2022-10-17T11:11:08;24.00;99.90
10129;DHT22;5104;50.720;7.044;2022-10-17T11:13:41;23.40;1.00
10129;DHT22;5104;50.720;7.044;2022-10-17T11:16:19;23.00;1.00
10129;DHT22;5104;50.720;7.044;2022-10-17T11:18:53;23.10;1.00
10129;DHT22;5104;50.720;7.044;2022-10-17T11:21:36;23.10;99.90
10129;DHT22;5104;50.720;7.044;2022-10-17T11:24:09;23.00;1.00
10129;DHT22;5104;50.720;7.044;2022-10-17T11:26:41;22.80;1.00
10129;DHT22;5104;50.720;7.044;2022-10-17T11:29:10;22.90;1.00
10129;DHT22;5104;50.720;7.044;2022-10-17T11:31:40;22.90;1.00
10129;DHT22;5104;50.720;7.044;2022-10-17T11:34:13;22.70;1.00
10129;DHT22;5104;50.720;7.044;2022-10-17T11:36:47;22.80;99.90
10129;DHT22;5104;50.720;7.044;2022-10-17T11:39:18;22.90;1.00
10129;DHT22;5104;50.720;7.044;2022-10-17T11:41:47;22.80;99.90
10129;DHT22;5104;50.720;7.044;2022-10-17T11:44:20;22.80;1.00
10129;DHT22;5104;50.720;7.044;2022-10-17T11:46:52;22.80;99.90
10129;DHT22;5104;50.720;7.044;2022-10-17T11:49:23;22.60;7.70
10129;DHT22;5104;50.720;7.044;2022-10-17T11:51:55;22.50;1.00
10129;DHT22;5104;50.720;7.044;2022-10-17T11:54:29;22.40;1.00
10129;DHT22;5104;50.720;7.044;2022-10-17T11:57:09;22.40;29.70
10129;DHT22;5104;50.720;7.044;2022-10-17T11:59:51;22.40;99.90
10129;DHT22;5104;50.720;7.044;2022-10-17T12:02:26;22.30;1.00
10129;DHT22;5104;50.720;7.044;2022-10-17T12:04:59;22.20;35.30
10129;DHT22;5104;50.720;7.044;2022-10-17T12:07:37;22.10;99.90
10129;DHT22;5104;50.720;7.044;2022-10-17T12:10:27;22.00;99.90
10129;DHT22;5104;50.720;7.044;2022-10-17T12:12:55;21.90;1.00
10129;DHT22;5104;50.720;7.044;2022-10-17T12:15:29;21.90;1.00
10129;DHT22;5104;50.720;7.044;2022-10-17T12:17:57;21.90;1.00
10129;DHT22;5104;50.720;7.044;2022-10-17T12:20:34;22.00;1.00
10129;DHT22;5104;50.720;7.044;2022-10-17T12:23:21;21.80;1.00
10129;DHT22;5104;50.720;7.044;2022-10-17T12:25:51;21.90;1.00
10129;DHT22;5104;50.720;7.044;2022-10-17T12:28:25;22.00;1.00
10129;DHT22;5104;50.720;7.044;2022-10-17T12:30:57;22.00;1.00
10129;DHT22;5104;50.720;7.044;2022-10-17T12:33:32;22.10;1.00
10129;DHT22;5104;50.720;7.044;2022-10-17T12:42:48;22.40;1.00
10129;DHT22;5104;50.720;7.044;2022-10-17T12:45:49;22.30;1.00
10129;DHT22;5104;50.720;7.044;2022-10-17T12:51:20;22.30;1.00
10129;DHT22;5104;50.720;7.044;2022-10-17T12:53:52;22.20;1.00
10129;DHT22;5104;50.720;7.044;2022-10-17T12:56:30;22.20;1.00
10129;DHT22;5104;50.720;7.044;2022-10-17T12:59:06;22.10;1.00
10129;DHT22;5104;50.720;7.044;2022-10-17T13:01:36;22.10;1.00
10129;DHT22;5104;50.720;7.044;2022-10-17T13:04:04;22.10;1.00
10129;DHT22;5104;50.720;7.044;2022-10-17T13:06:32;22.20;99.90
10129;DHT22;5104;50.720;7.044;2022-10-17T13:09:06;22.30;1.00
10129;DHT22;5104;50.720;7.044;2022-10-17T13:11:35;22.30;99.90
10129;DHT22;5104;50.720;7.044;2022-10-17T13:14:15;22.30;99.90
10129;DHT22;5104;50.720;7.044;2022-10-17T13:16:50;22.20;99.90
10129;DHT22;5104;50.720;7.044;2022-10-17T13:19:20;22.10;99.90
10129;DHT22;5104;50.720;7.044;2022-10-17T13:21:51;22.00;99.90
10129;DHT22;5104;50.720;7.044;2022-10-17T13:24:22;21.90;99.90
10129;DHT22;5104;50.720;7.044;2022-10-17T13:26:49;21.80;1.00
10129;DHT22;5104;50.720;7.044;2022-10-17T13:29:17;21.70;1.00
10129;DHT22;5104;50.720;7.044;2022-10-17T13:31:51;21.60;1.00
10129;DHT22;5104;50.720;7.044;2022-10-17T13:34:19;21.60;1.00
10129;DHT22;5104;50.720;7.044;2022-10-17T13:36:49;21.60;1.00
10129;DHT22;5104;50.720;7.044;2022-10-17T13:39:18;21.60;1.00
10129;DHT22;5104;50.720;7.044;2022-10-17T13:41:46;21.50;1.00
10129;DHT22;5104;50.720;7.044;2022-10-17T13:44:16;21.40;1.00
10129;DHT22;5104;50.720;7.044;2022-10-17T13:46:46;21.50;1.00
10129;DHT22;5104;50.720;7.044;2022-10-17T13:49:19;21.50;1.00
10129;DHT22;5104;50.720;7.044;2022-10-17T13:51:49;21.40;1.00
10129;DHT22;5104;50.720;7.044;2022-10-17T13:54:27;21.40;1.00
10129;DHT22;5104;50.720;7.044;2022-10-17T13:56:57;21.40;1.00
10129;DHT22;5104;50.720;7.044;2022-10-17T13:59:28;21.40;1.00
10129;DHT22;5104;50.720;7.044;2022-10-17T14:01:59;21.40;1.00
10129;DHT22;5104;50.720;7.044;2022-10-17T14:04:26;21.40;1.00
10129;DHT22;5104;50.720;7.044;2022-10-17T14:06:54;21.50;1.00
10129;DHT22;5104;50.720;7.044;2022-10-17T14:09:23;21.50;1.00
10129;DHT22;5104;50.720;7.044;2022-10-17T14:12:00;21.60;1.00
10129;DHT22;5104;50.720;7.044;2022-10-17T14:14:27;21.70;99.90
10129;DHT22;5104;50.720;7.044;2022-10-17T14:16:55;21.80;1.00
10129;DHT22;5104;50.720;7.044;2022-10-17T14:19:26;21.90;99.90
10129;DHT22;5104;50.720;7.044;2022-10-17T14:21:54;22.00;1.00
10129;DHT22;5104;50.720;7.044;2022-10-17T14:24:29;22.20;1.00
10129;DHT22;5104;50.720;7.044;2022-10-17T14:26:57;22.30;1.00
10129;DHT22;5104;50.720;7.044;2022-10-17T14:29:26;22.50;1.00
10129;DHT22;5104;50.720;7.044;2022-10-17T14:32:02;22.50;99.90
10129;DHT22;5104;50.720;7.044;2022-10-17T14:34:33;22.40;1.00
10129;DHT22;5104;50.720;7.044;2022-10-17T14:37:02;22.20;1.00
10129;DHT22;5104;50.720;7.044;2022-10-17T14:39:34;22.20;11.40
10129;DHT22;5104;50.720;7.044;2022-10-17T14:42:00;22.10;99.90
10129;DHT22;5104;50.720;7.044;2022-10-17T14:44:29;22.10;99.90
10129;DHT22;5104;50.720;7.044;2022-10-17T14:46:58;22.10;99.90
10129;DHT22;5104;50.720;7.044;2022-10-17T14:49:35;22.10;99.90
10129;DHT22;5104;50.720;7.044;2022-10-17T14:52:26;22.00;99.90
10129;DHT22;5104;50.720;7.044;2022-10-17T14:54:54;21.90;97.40
10129;DHT22;5104;50.720;7.044;2022-10-17T14:57:25;21.80;99.90
10129;DHT22;5104;50.720;7.044;2022-10-17T14:59:53;21.80;99.90
10129;DHT22;5104;50.720;7.044;2022-10-17T15:02:20;21.70;14.70
10129;DHT22;5104;50.720;7.044;2022-10-17T15:04:48;21.70;1.00
10129;DHT22;5104;50.720;7.044;2022-10-17T15:07:16;21.60;1.00
10129;DHT22;5104;50.720;7.044;2022-10-17T15:09:44;21.60;99.90
10129;DHT22;5104;50.720;7.044;2022-10-17T15:12:15;21.60;1.00
10129;DHT22;5104;50.720;7.044;2022-10-17T15:14:43;21.60;1.00
10129;DHT22;5104;50.720;7.044;2022-10-17T15:17:12;21.50;99.90
10129;DHT22;5104;50.720;7.044;2022-10-17T15:19:40;21.50;99.90
10129;DHT22;5104;50.720;7.044;2022-10-17T15:22:09;21.40;1.00
10129;DHT22;5104;50.720;7.044;2022-10-17T15:24:36;21.30;1.00
10129;DHT22;5104;50.720;7.044;2022-10-17T15:27:06;21.30;1.00
10129;DHT22;5104;50.720;7.044;2022-10-17T15:29:35;21.30;1.00
10129;DHT22;5104;50.720;7.044;2022-10-17T15:32:02;21.30;1.00
10129;DHT22;5104;50.720;7.044;2022-10-17T15:34:29;21.20;1.00
10129;DHT22;5104;50.720;7.044;2022-10-17T15:36:55;21.20;1.00
10129;DHT22;5104;50.720;7.044;2022-10-17T15:39:24;21.10;1.00
10129;DHT22;5104;50.720;7.044;2022-10-17T15:41:51;20.90;99.90
10129;DHT22;5104;50.720;7.044;2022-10-17T15:44:18;20.80;1.00
10129;DHT22;5104;50.720;7.044;2022-10-17T15:46:45;20.70;99.90
10129;DHT22;5104;50.720;7.044;2022-10-17T15:49:13;20.60;99.90
10129;DHT22;5104;50.720;7.044;2022-10-17T15:51:40;20.50;1.00
10129;DHT22;5104;50.720;7.044;2022-10-17T15:54:07;20.40;1.00
10129;DHT22;5104;50.720;7.044;2022-10-17T15:56:37;20.30;1.00
10129;DHT22;5104;50.720;7.044;2022-10-17T15:59:09;20.20;1.00
10129;DHT22;5104;50.720;7.044;2022-10-17T16:01:38;20.20;1.00
10129;DHT22;5104;50.720;7.044;2022-10-17T16:04:05;20.10;1.00
10129;DHT22;5104;50.720;7.044;2022-10-17T16:06:32;20.00;1.00
10129;DHT22;5104;50.720;7.044;2022-10-17T16:08:59;20.00;1.00
10129;DHT22;5104;50.720;7.044;2022-10-17T16:11:29;19.90;1.00
10129;DHT22;5104;50.720;7.044;2022-10-17T16:13:59;19.80;1.00
10129;DHT22;5104;50.720;7.044;2022-10-17T16:16:26;19.80;1.00
10129;DHT22;5104;50.720;7.044;2022-10-17T16:18:53;19.70;1.00
10129;DHT22;5104;50.720;7.044;2022-10-17T16:21:24;19.60;10.60
10129;DHT22;5104;50.720;7.044;2022-10-17T16:23:51;19.60;21.10